sensor_id;sensor_type;location;lat;lon;timestamp;pressure;altitude;pressure_sealevel;temperature;humidity
141;BME280;65;48.778;9.160;2024-02-14T00:01:21;98976.13;;;3.36;100.00
141;BME280;65;48.778;9.160;2024-02-14T00:04:07;98971.69;;;3.39;100.00
141;BME280;65;48.778;9.160;2024-02-14T00:06:53;98969.84;;;3.43;100.00
141;BME280;65;48.778;9.160;2024-02-14T00:09:39;98980.25;;;3.46;100.00
141;BME280;65;48.778;9.160;2024-02-14T00:12:25;98977.59;;;3.49;100.00
141;BME280;65;48.778;9.160;2024-02-14T00:15:10;98981.84;;;3.53;100.00
141;BME280;65;48.778;9.160;2024-02-14T00:17:56;98978.44;;;3.49;100.00
141;BME280;65;48.778;9.160;2024-02-14T00:20:42;98979.25;;;3.53;100.00
141;BME280;65;48.778;9.160;2024-02-14T00:23:28;98991.09;;;3.68;100.00
141;BME280;65;48.778;9.160;2024-02-14T00:26:13;98996.84;;;3.84;100.00
141;BME280;65;48.778;9.160;2024-02-14T00:28:59;98988.03;;;3.88;100.00
141;BME280;65;48.778;9.160;2024-02-14T00:31:45;98979.53;;;4.15;100.00
141;BME280;65;48.778;9.160;2024-02-14T00:34:31;98975.56;;;4.34;100.00
141;BME280;65;48.778;9.160;2024-02-14T00:37:16;98972.69;;;4.43;100.00
141;BME280;65;48.778;9.160;2024-02-14T00:40:03;98975.00;;;4.56;100.00
141;BME280;65;48.778;9.160;2024-02-14T00:42:49;98975.69;;;4.64;100.00
141;BME280;65;48.778;9.160;2024-02-14T00:45:35;98979.88;;;4.69;100.00
141;BME280;65;48.778;9.160;2024-02-14T00:48:23;98980.63;;;4.74;100.00
141;BME280;65;48.778;9.160;2024-02-14T00:51:09;98981.19;;;4.86;100.00
141;BME280;65;48.778;9.160;2024-02-14T00:53:54;98981.84;;;4.94;100.00
141;BME280;65;48.778;9.160;2024-02-14T00:56:40;98976.47;;;4.98;100.00
141;BME280;65;48.778;9.160;2024-02-14T00:59:26;98984.97;;;5.06;100.00
141;BME280;65;48.778;9.160;2024-02-14T01:02:13;98987.44;;;5.11;100.00
141;BME280;65;48.778;9.160;2024-02-14T01:04:59;98987.13;;;5.23;100.00
141;BME280;65;48.778;9.160;2024-02-14T01:07:46;98983.59;;;5.24;100.00
141;BME280;65;48.778;9.160;2024-02-14T01:10:32;98983.69;;;5.21;100.00
141;BME280;65;48.778;9.160;2024-02-14T01:13:18;98990.88;;;5.13;100.00
141;BME280;65;48.778;9.160;2024-02-14T01:16:04;98997.19;;;5.06;100.00
141;BME280;65;48.778;9.160;2024-02-14T01:18:50;98998.28;;;4.99;100.00
141;BME280;65;48.778;9.160;2024-02-14T01:21:36;99000.06;;;4.97;100.00
141;BME280;65;48.778;9.160;2024-02-14T01:24:22;98993.06;;;4.97;100.00
141;BME280;65;48.778;9.160;2024-02-14T01:27:07;98992.25;;;4.95;100.00
141;BME280;65;48.778;9.160;2024-02-14T01:29:54;98983.50;;;4.96;100.00
141;BME280;65;48.778;9.160;2024-02-14T01:32:40;98986.06;;;4.98;100.00
141;BME280;65;48.778;9.160;2024-02-14T01:35:26;98979.94;;;4.99;100.00
141;BME280;65;48.778;9.160;2024-02-14T01:38:12;98982.47;;;5.02;100.00
141;BME280;65;48.778;9.160;2024-02-14T01:40:58;98977.22;;;5.02;100.00
141;BME280;65;48.778;9.160;2024-02-14T01:43:44;98973.72;;;5.03;100.00
141;BME280;65;48.778;9.160;2024-02-14T01:46:30;98968.47;;;5.03;100.00
141;BME280;65;48.778;9.160;2024-02-14T01:49:16;98963.06;;;5.09;100.00
141;BME280;65;48.778;9.160;2024-02-14T01:52:02;98971.59;;;5.16;100.00
141;BME280;65;48.778;9.160;2024-02-14T01:54:49;98969.69;;;5.22;100.00
141;BME280;65;48.778;9.160;2024-02-14T01:57:34;98973.97;;;5.25;100.00
141;BME280;65;48.778;9.160;2024-02-14T02:00:21;98968.56;;;5.31;100.00
141;BME280;65;48.778;9.160;2024-02-14T02:03:07;98969.19;;;5.39;100.00
141;BME280;65;48.778;9.160;2024-02-14T02:05:53;98968.91;;;5.48;100.00
141;BME280;65;48.778;9.160;2024-02-14T02:08:39;98961.63;;;5.58;100.00
141;BME280;65;48.778;9.160;2024-02-14T02:11:27;98966.66;;;5.64;100.00
141;BME280;65;48.778;9.160;2024-02-14T02:14:12;98970.88;;;5.69;100.00
141;BME280;65;48.778;9.160;2024-02-14T02:16:59;98969.75;;;5.78;100.00
141;BME280;65;48.778;9.160;2024-02-14T02:19:45;98952.69;;;5.93;100.00
141;BME280;65;48.778;9.160;2024-02-14T02:22:34;98960.78;;;5.85;100.00
141;BME280;65;48.778;9.160;2024-02-14T02:25:23;98953.06;;;5.81;100.00
141;BME280;65;48.778;9.160;2024-02-14T02:28:10;98948.41;;;5.89;100.00
141;BME280;65;48.778;9.160;2024-02-14T02:30:56;98950.97;;;5.92;100.00
141;BME280;65;48.778;9.160;2024-02-14T02:33:41;98952.69;;;5.93;100.00
141;BME280;65;48.778;9.160;2024-02-14T02:36:28;98954.16;;;6.01;100.00
141;BME280;65;48.778;9.160;2024-02-14T02:39:15;98951.44;;;6.05;100.00
141;BME280;65;48.778;9.160;2024-02-14T02:42:02;98947.16;;;6.02;100.00
141;BME280;65;48.778;9.160;2024-02-14T02:44:50;98933.47;;;5.92;100.00
141;BME280;65;48.778;9.160;2024-02-14T02:47:36;98933.28;;;5.98;100.00
141;BME280;65;48.778;9.160;2024-02-14T02:50:22;98930.16;;;5.86;100.00
141;BME280;65;48.778;9.160;2024-02-14T02:53:07;98936.22;;;5.88;100.00
141;BME280;65;48.778;9.160;2024-02-14T02:55:53;98929.19;;;5.88;100.00
141;BME280;65;48.778;9.160;2024-02-14T02:58:39;98923.34;;;5.80;100.00
141;BME280;65;48.778;9.160;2024-02-14T03:01:25;98918.91;;;5.82;100.00
141;BME280;65;48.778;9.160;2024-02-14T03:04:13;98906.38;;;5.92;100.00
141;BME280;65;48.778;9.160;2024-02-14T03:07:00;98894.50;;;5.80;100.00
141;BME280;65;48.778;9.160;2024-02-14T03:09:49;98898.78;;;5.83;100.00
141;BME280;65;48.778;9.160;2024-02-14T03:12:35;98922.53;;;5.78;100.00
141;BME280;65;48.778;9.160;2024-02-14T03:15:21;98916.00;;;5.63;100.00
141;BME280;65;48.778;9.160;2024-02-14T03:18:06;98920.84;;;5.48;100.00
141;BME280;65;48.778;9.160;2024-02-14T03:20:55;98926.53;;;5.34;100.00
141;BME280;65;48.778;9.160;2024-02-14T03:23:41;98932.09;;;5.23;100.00
141;BME280;65;48.778;9.160;2024-02-14T03:26:27;98929.81;;;5.11;100.00
141;BME280;65;48.778;9.160;2024-02-14T03:29:13;98935.81;;;5.15;100.00
141;BME280;65;48.778;9.160;2024-02-14T03:31:59;98943.31;;;5.28;100.00
141;BME280;65;48.778;9.160;2024-02-14T03:34:49;98944.25;;;5.26;100.00
141;BME280;65;48.778;9.160;2024-02-14T03:37:35;98961.88;;;5.19;100.00
141;BME280;65;48.778;9.160;2024-02-14T03:40:22;98960.09;;;5.21;100.00
141;BME280;65;48.778;9.160;2024-02-14T03:43:09;98955.59;;;5.26;100.00
141;BME280;65;48.778;9.160;2024-02-14T03:45:57;98958.28;;;5.53;100.00
141;BME280;65;48.778;9.160;2024-02-14T03:48:46;98958.03;;;5.60;100.00
141;BME280;65;48.778;9.160;2024-02-14T03:51:33;98970.16;;;5.64;100.00
141;BME280;65;48.778;9.160;2024-02-14T03:54:19;98960.41;;;5.68;100.00
141;BME280;65;48.778;9.160;2024-02-14T03:57:04;98966.72;;;5.92;100.00
141;BME280;65;48.778;9.160;2024-02-14T03:59:57;98964.81;;;5.97;100.00
141;BME280;65;48.778;9.160;2024-02-14T04:02:43;98966.88;;;5.86;100.00
141;BME280;65;48.778;9.160;2024-02-14T04:05:28;98962.69;;;5.80;100.00
141;BME280;65;48.778;9.160;2024-02-14T04:08:14;98956.75;;;5.73;100.00
141;BME280;65;48.778;9.160;2024-02-14T04:11:00;98950.84;;;5.67;100.00
141;BME280;65;48.778;9.160;2024-02-14T04:13:46;98954.47;;;5.63;100.00
141;BME280;65;48.778;9.160;2024-02-14T04:16:31;98945.78;;;5.61;100.00
141;BME280;65;48.778;9.160;2024-02-14T04:19:17;98950.94;;;5.64;100.00
141;BME280;65;48.778;9.160;2024-02-14T04:22:03;98961.34;;;5.67;100.00
141;BME280;65;48.778;9.160;2024-02-14T04:24:49;98966.06;;;5.56;100.00
141;BME280;65;48.778;9.160;2024-02-14T04:27:34;98960.09;;;5.51;100.00
141;BME280;65;48.778;9.160;2024-02-14T04:30:20;98966.16;;;5.53;100.00
141;BME280;65;48.778;9.160;2024-02-14T04:33:06;98966.19;;;5.51;100.00
141;BME280;65;48.778;9.160;2024-02-14T04:35:53;98962.91;;;5.45;100.00
141;BME280;65;48.778;9.160;2024-02-14T04:38:39;98961.31;;;5.39;100.00
141;BME280;65;48.778;9.160;2024-02-14T04:41:26;98974.47;;;5.37;100.00
141;BME280;65;48.778;9.160;2024-02-14T04:44:12;98970.66;;;5.48;100.00
141;BME280;65;48.778;9.160;2024-02-14T04:46:58;98972.09;;;5.58;100.00
141;BME280;65;48.778;9.160;2024-02-14T04:49:44;98974.44;;;5.67;100.00
141;BME280;65;48.778;9.160;2024-02-14T04:52:30;98976.72;;;5.79;100.00
141;BME280;65;48.778;9.160;2024-02-14T04:55:16;98981.59;;;5.91;100.00
141;BME280;65;48.778;9.160;2024-02-14T04:58:01;98982.06;;;6.04;100.00
141;BME280;65;48.778;9.160;2024-02-14T05:00:47;98975.66;;;6.13;100.00
141;BME280;65;48.778;9.160;2024-02-14T05:03:33;98982.56;;;6.15;100.00
141;BME280;65;48.778;9.160;2024-02-14T05:06:19;98976.97;;;6.26;100.00
141;BME280;65;48.778;9.160;2024-02-14T05:09:05;98977.28;;;6.17;100.00
141;BME280;65;48.778;9.160;2024-02-14T05:11:51;98974.50;;;6.21;100.00
141;BME280;65;48.778;9.160;2024-02-14T05:14:39;98972.03;;;6.17;100.00
141;BME280;65;48.778;9.160;2024-02-14T05:17:25;98978.19;;;6.16;100.00
141;BME280;65;48.778;9.160;2024-02-14T05:20:11;98968.53;;;6.16;100.00
141;BME280;65;48.778;9.160;2024-02-14T05:22:57;98969.50;;;6.14;100.00
141;BME280;65;48.778;9.160;2024-02-14T05:25:43;98976.50;;;6.13;100.00
141;BME280;65;48.778;9.160;2024-02-14T05:28:30;98968.69;;;6.12;100.00
141;BME280;65;48.778;9.160;2024-02-14T05:31:16;98969.44;;;6.15;100.00
141;BME280;65;48.778;9.160;2024-02-14T05:34:02;98972.13;;;6.14;100.00
141;BME280;65;48.778;9.160;2024-02-14T05:36:48;98963.13;;;6.21;100.00
141;BME280;65;48.778;9.160;2024-02-14T05:39:40;98974.53;;;6.20;100.00
141;BME280;65;48.778;9.160;2024-02-14T05:42:26;98982.31;;;6.23;100.00
141;BME280;65;48.778;9.160;2024-02-14T05:45:12;98977.16;;;6.20;100.00
141;BME280;65;48.778;9.160;2024-02-14T05:47:58;98980.69;;;6.19;100.00
141;BME280;65;48.778;9.160;2024-02-14T05:50:43;98965.81;;;6.19;100.00
141;BME280;65;48.778;9.160;2024-02-14T05:53:29;98962.53;;;6.13;100.00
141;BME280;65;48.778;9.160;2024-02-14T05:56:15;98965.06;;;6.16;100.00
141;BME280;65;48.778;9.160;2024-02-14T05:59:01;98971.16;;;6.16;100.00
141;BME280;65;48.778;9.160;2024-02-14T06:01:46;98969.50;;;6.14;100.00
141;BME280;65;48.778;9.160;2024-02-14T06:04:32;98960.56;;;6.19;100.00
141;BME280;65;48.778;9.160;2024-02-14T06:07:18;98966.78;;;6.17;100.00
141;BME280;65;48.778;9.160;2024-02-14T06:10:04;98961.78;;;6.09;100.00
141;BME280;65;48.778;9.160;2024-02-14T06:12:52;98959.91;;;6.13;100.00
141;BME280;65;48.778;9.160;2024-02-14T06:15:37;98954.75;;;6.10;100.00
141;BME280;65;48.778;9.160;2024-02-14T06:18:23;98960.13;;;6.07;100.00
141;BME280;65;48.778;9.160;2024-02-14T06:21:09;98970.59;;;6.07;100.00
141;BME280;65;48.778;9.160;2024-02-14T06:23:55;98959.34;;;6.03;100.00
141;BME280;65;48.778;9.160;2024-02-14T06:26:41;98956.94;;;6.23;100.00
141;BME280;65;48.778;9.160;2024-02-14T06:29:26;98963.13;;;6.21;100.00
141;BME280;65;48.778;9.160;2024-02-14T06:32:13;98963.94;;;6.23;100.00
141;BME280;65;48.778;9.160;2024-02-14T06:34:59;98978.72;;;6.25;100.00
141;BME280;65;48.778;9.160;2024-02-14T06:37:45;98984.03;;;6.24;100.00
141;BME280;65;48.778;9.160;2024-02-14T06:40:31;98978.63;;;6.28;100.00
141;BME280;65;48.778;9.160;2024-02-14T06:43:17;98979.25;;;6.37;100.00
141;BME280;65;48.778;9.160;2024-02-14T06:46:03;98987.75;;;6.45;100.00
141;BME280;65;48.778;9.160;2024-02-14T06:48:48;98986.47;;;6.56;99.00
141;BME280;65;48.778;9.160;2024-02-14T06:51:34;98983.13;;;6.51;100.00
141;BME280;65;48.778;9.160;2024-02-14T06:54:20;98990.53;;;6.40;100.00
141;BME280;65;48.778;9.160;2024-02-14T06:57:06;98981.72;;;6.41;100.00
141;BME280;65;48.778;9.160;2024-02-14T06:59:53;98985.16;;;6.43;99.87
141;BME280;65;48.778;9.160;2024-02-14T07:02:38;98974.50;;;6.48;100.00
141;BME280;65;48.778;9.160;2024-02-14T07:05:25;98982.22;;;6.52;99.65
141;BME280;65;48.778;9.160;2024-02-14T07:08:11;98969.72;;;6.59;99.98
141;BME280;65;48.778;9.160;2024-02-14T07:10:57;98981.97;;;6.60;99.41
141;BME280;65;48.778;9.160;2024-02-14T07:13:43;98982.88;;;6.59;100.00
141;BME280;65;48.778;9.160;2024-02-14T07:16:29;98987.25;;;6.58;100.00
141;BME280;65;48.778;9.160;2024-02-14T07:19:15;98985.28;;;6.65;100.00
141;BME280;65;48.778;9.160;2024-02-14T07:22:01;98991.19;;;6.72;100.00
141;BME280;65;48.778;9.160;2024-02-14T07:24:47;98990.91;;;6.79;100.00
141;BME280;65;48.778;9.160;2024-02-14T07:27:33;98989.03;;;6.83;100.00
141;BME280;65;48.778;9.160;2024-02-14T07:30:18;98999.16;;;6.93;100.00
141;BME280;65;48.778;9.160;2024-02-14T07:33:04;99004.16;;;7.01;100.00
141;BME280;65;48.778;9.160;2024-02-14T07:35:50;98996.00;;;7.09;100.00
141;BME280;65;48.778;9.160;2024-02-14T07:38:36;99003.31;;;7.24;100.00
141;BME280;65;48.778;9.160;2024-02-14T07:41:22;99003.78;;;7.35;100.00
141;BME280;65;48.778;9.160;2024-02-14T07:44:08;99013.03;;;7.45;98.18
141;BME280;65;48.778;9.160;2024-02-14T07:46:54;99018.50;;;7.64;97.61
141;BME280;65;48.778;9.160;2024-02-14T07:49:40;99018.66;;;7.83;96.59
141;BME280;65;48.778;9.160;2024-02-14T07:52:26;99022.13;;;8.05;90.87
141;BME280;65;48.778;9.160;2024-02-14T07:55:12;99021.25;;;8.28;93.55
141;BME280;65;48.778;9.160;2024-02-14T07:57:58;99026.22;;;8.36;94.62
141;BME280;65;48.778;9.160;2024-02-14T08:00:45;99021.44;;;8.45;92.29
141;BME280;65;48.778;9.160;2024-02-14T08:03:31;99021.31;;;8.48;93.43
141;BME280;65;48.778;9.160;2024-02-14T08:06:17;99023.03;;;8.49;91.85
141;BME280;65;48.778;9.160;2024-02-14T08:09:03;99036.25;;;8.48;95.49
141;BME280;65;48.778;9.160;2024-02-14T08:11:51;99029.63;;;8.60;91.50
141;BME280;65;48.778;9.160;2024-02-14T08:14:38;99032.19;;;8.61;90.96
141;BME280;65;48.778;9.160;2024-02-14T08:17:24;99036.47;;;8.64;91.47
141;BME280;65;48.778;9.160;2024-02-14T08:20:10;99033.16;;;8.80;90.86
141;BME280;65;48.778;9.160;2024-02-14T08:22:56;99031.13;;;8.87;88.83
141;BME280;65;48.778;9.160;2024-02-14T08:25:41;99033.16;;;8.80;89.69
141;BME280;65;48.778;9.160;2024-02-14T08:28:27;99039.69;;;8.72;92.20
141;BME280;65;48.778;9.160;2024-02-14T08:31:13;99045.75;;;8.74;90.52
141;BME280;65;48.778;9.160;2024-02-14T08:33:58;99039.41;;;8.78;92.68
141;BME280;65;48.778;9.160;2024-02-14T08:36:44;99052.66;;;8.97;90.63
141;BME280;65;48.778;9.160;2024-02-14T08:39:31;99047.78;;;9.28;92.72
141;BME280;65;48.778;9.160;2024-02-14T08:42:16;99052.53;;;9.59;89.15
141;BME280;65;48.778;9.160;2024-02-14T08:45:02;99045.34;;;9.81;84.62
141;BME280;65;48.778;9.160;2024-02-14T08:47:48;99047.09;;;10.01;79.75
141;BME280;65;48.778;9.160;2024-02-14T08:50:35;99044.31;;;10.23;76.11
141;BME280;65;48.778;9.160;2024-02-14T08:53:20;99035.38;;;10.26;76.64
141;BME280;65;48.778;9.160;2024-02-14T08:56:07;99030.22;;;10.41;79.17
141;BME280;65;48.778;9.160;2024-02-14T08:58:53;99031.41;;;10.53;74.53
141;BME280;65;48.778;9.160;2024-02-14T09:01:39;99035.06;;;10.68;73.25
141;BME280;65;48.778;9.160;2024-02-14T09:04:24;99024.88;;;10.77;74.53
141;BME280;65;48.778;9.160;2024-02-14T09:07:10;99025.34;;;10.86;72.84
141;BME280;65;48.778;9.160;2024-02-14T09:09:56;99036.88;;;10.85;71.35
141;BME280;65;48.778;9.160;2024-02-14T09:12:42;99033.53;;;10.81;71.64
141;BME280;65;48.778;9.160;2024-02-14T09:15:28;99034.22;;;10.85;74.53
141;BME280;65;48.778;9.160;2024-02-14T09:18:14;99041.59;;;10.95;72.81
141;BME280;65;48.778;9.160;2024-02-14T09:21:01;99041.47;;;10.98;72.10
141;BME280;65;48.778;9.160;2024-02-14T09:23:50;99044.25;;;10.95;78.03
141;BME280;65;48.778;9.160;2024-02-14T09:26:37;99048.59;;;10.96;75.58
141;BME280;65;48.778;9.160;2024-02-14T09:29:23;99046.59;;;10.84;76.19
141;BME280;65;48.778;9.160;2024-02-14T09:32:09;99046.66;;;11.17;71.87
141;BME280;65;48.778;9.160;2024-02-14T09:34:55;99037.03;;;11.16;75.41
141;BME280;65;48.778;9.160;2024-02-14T09:37:40;99051.28;;;11.47;71.60
141;BME280;65;48.778;9.160;2024-02-14T09:40:26;99044.53;;;11.41;73.12
141;BME280;65;48.778;9.160;2024-02-14T09:43:31;99045.03;;;11.65;72.84
141;BME280;65;48.778;9.160;2024-02-14T09:46:24;99034.41;;;11.82;69.17
141;BME280;65;48.778;9.160;2024-02-14T09:49:10;99036.13;;;11.99;71.97
141;BME280;65;48.778;9.160;2024-02-14T09:51:58;99028.78;;;12.04;67.98
141;BME280;65;48.778;9.160;2024-02-14T09:54:46;99024.94;;;12.25;66.37
141;BME280;65;48.778;9.160;2024-02-14T09:57:32;99031.41;;;12.04;69.29
141;BME280;65;48.778;9.160;2024-02-14T10:00:18;99043.03;;;12.01;70.00
141;BME280;65;48.778;9.160;2024-02-14T10:03:04;99030.56;;;11.88;69.16
141;BME280;65;48.778;9.160;2024-02-14T10:05:51;99029.09;;;11.82;70.54
141;BME280;65;48.778;9.160;2024-02-14T10:08:40;99034.94;;;12.04;70.09
141;BME280;65;48.778;9.160;2024-02-14T10:11:26;99036.56;;;12.07;70.31
141;BME280;65;48.778;9.160;2024-02-14T10:14:12;99023.63;;;11.85;73.25
141;BME280;65;48.778;9.160;2024-02-14T10:16:59;99024.16;;;11.92;72.70
141;BME280;65;48.778;9.160;2024-02-14T10:19:55;99031.34;;;11.90;74.62
141;BME280;65;48.778;9.160;2024-02-14T10:22:41;99034.75;;;12.08;72.93
141;BME280;65;48.778;9.160;2024-02-14T10:25:27;99019.03;;;11.89;76.32
141;BME280;65;48.778;9.160;2024-02-14T10:28:13;99023.06;;;11.63;81.05
141;BME280;65;48.778;9.160;2024-02-14T10:30:58;99016.13;;;11.78;78.86
141;BME280;65;48.778;9.160;2024-02-14T10:33:45;99016.59;;;11.68;81.66
141;BME280;65;48.778;9.160;2024-02-14T10:36:31;99018.44;;;11.84;79.98
141;BME280;65;48.778;9.160;2024-02-14T10:39:20;99024.31;;;11.89;80.14
141;BME280;65;48.778;9.160;2024-02-14T10:42:07;99021.41;;;12.09;78.79
141;BME280;65;48.778;9.160;2024-02-14T10:44:52;99018.09;;;12.21;78.70
141;BME280;65;48.778;9.160;2024-02-14T10:47:42;99009.38;;;12.19;79.31
141;BME280;65;48.778;9.160;2024-02-14T10:50:31;99018.09;;;12.21;79.80
141;BME280;65;48.778;9.160;2024-02-14T10:53:19;99019.00;;;12.52;77.63
141;BME280;65;48.778;9.160;2024-02-14T10:56:06;99013.16;;;12.77;76.34
141;BME280;65;48.778;9.160;2024-02-14T10:58:57;99011.56;;;12.88;74.39
141;BME280;65;48.778;9.160;2024-02-14T11:01:44;99014.34;;;13.15;74.74
141;BME280;65;48.778;9.160;2024-02-14T11:04:31;99019.34;;;13.06;75.14
141;BME280;65;48.778;9.160;2024-02-14T11:07:17;99024.47;;;13.09;76.73
141;BME280;65;48.778;9.160;2024-02-14T11:12:50;99024.56;;;13.37;75.36
141;BME280;65;48.778;9.160;2024-02-14T11:15:36;99030.94;;;13.49;75.14
141;BME280;65;48.778;9.160;2024-02-14T11:18:26;99031.13;;;13.16;78.12
141;BME280;65;48.778;9.160;2024-02-14T11:21:16;99022.78;;;13.08;79.37
141;BME280;65;48.778;9.160;2024-02-14T11:24:06;99020.16;;;13.22;78.26
141;BME280;65;48.778;9.160;2024-02-14T11:26:55;99023.63;;;13.08;81.04
141;BME280;65;48.778;9.160;2024-02-14T11:29:51;99025.34;;;13.09;81.93
141;BME280;65;48.778;9.160;2024-02-14T11:32:38;99031.94;;;12.88;84.74
141;BME280;65;48.778;9.160;2024-02-14T11:35:28;99029.28;;;13.18;81.82
141;BME280;65;48.778;9.160;2024-02-14T11:38:14;99025.16;;;13.56;80.19
141;BME280;65;48.778;9.160;2024-02-14T11:41:00;99027.50;;;14.04;76.01
141;BME280;65;48.778;9.160;2024-02-14T11:43:51;99033.16;;;14.12;74.17
141;BME280;65;48.778;9.160;2024-02-14T11:46:37;99033.28;;;13.82;75.80
141;BME280;65;48.778;9.160;2024-02-14T11:49:24;99025.81;;;13.46;78.76
141;BME280;65;48.778;9.160;2024-02-14T11:52:11;99029.31;;;13.46;80.51
141;BME280;65;48.778;9.160;2024-02-14T11:54:57;99027.31;;;13.36;80.11
141;BME280;65;48.778;9.160;2024-02-14T11:57:45;99024.13;;;13.15;81.37
141;BME280;65;48.778;9.160;2024-02-14T12:00:33;99034.19;;;13.24;81.93
141;BME280;65;48.778;9.160;2024-02-14T12:03:23;99030.16;;;13.47;79.02
141;BME280;65;48.778;9.160;2024-02-14T12:06:09;99030.16;;;13.47;78.49
141;BME280;65;48.778;9.160;2024-02-14T12:08:55;99031.59;;;13.67;76.62
141;BME280;65;48.778;9.160;2024-02-14T12:11:41;99033.41;;;13.52;78.54
141;BME280;65;48.778;9.160;2024-02-14T12:14:32;99029.56;;;14.13;77.12
141;BME280;65;48.778;9.160;2024-02-14T12:17:18;99027.13;;;14.51;72.83
141;BME280;65;48.778;9.160;2024-02-14T12:20:08;99027.50;;;14.45;72.89
141;BME280;65;48.778;9.160;2024-02-14T12:22:56;99025.72;;;13.90;75.15
141;BME280;65;48.778;9.160;2024-02-14T12:25:43;99036.59;;;14.00;75.96
141;BME280;65;48.778;9.160;2024-02-14T12:28:29;99016.97;;;14.29;73.48
141;BME280;65;48.778;9.160;2024-02-14T12:31:23;99027.00;;;14.52;74.53
141;BME280;65;48.778;9.160;2024-02-14T12:34:11;99012.88;;;14.52;72.96
141;BME280;65;48.778;9.160;2024-02-14T12:36:57;99007.44;;;14.12;74.64
141;BME280;65;48.778;9.160;2024-02-14T12:39:42;99007.22;;;13.88;77.59
141;BME280;65;48.778;9.160;2024-02-14T12:42:28;99008.03;;;14.03;76.04
141;BME280;65;48.778;9.160;2024-02-14T12:45:14;99004.63;;;13.87;76.48
141;BME280;65;48.778;9.160;2024-02-14T12:48:00;98998.53;;;13.85;76.04
141;BME280;65;48.778;9.160;2024-02-14T12:50:46;98999.78;;;13.79;76.97
141;BME280;65;48.778;9.160;2024-02-14T12:53:34;98999.31;;;14.28;74.41
141;BME280;65;48.778;9.160;2024-02-14T12:56:20;98990.09;;;14.48;75.28
141;BME280;65;48.778;9.160;2024-02-14T12:59:06;98986.59;;;15.25;69.14
141;BME280;65;48.778;9.160;2024-02-14T13:01:52;98985.50;;;15.40;68.94
141;BME280;65;48.778;9.160;2024-02-14T13:04:38;98987.31;;;15.52;67.62
141;BME280;65;48.778;9.160;2024-02-14T13:07:24;98974.22;;;15.49;67.33
141;BME280;65;48.778;9.160;2024-02-14T13:10:11;98982.84;;;15.40;67.31
141;BME280;65;48.778;9.160;2024-02-14T13:12:57;98983.94;;;15.25;69.34
141;BME280;65;48.778;9.160;2024-02-14T13:15:43;98984.13;;;15.22;71.21
141;BME280;65;48.778;9.160;2024-02-14T13:18:30;98968.91;;;15.24;70.10
141;BME280;65;48.778;9.160;2024-02-14T13:21:15;98981.38;;;15.36;68.84
141;BME280;65;48.778;9.160;2024-02-14T13:24:02;98977.72;;;14.99;72.53
141;BME280;65;48.778;9.160;2024-02-14T13:26:49;98975.03;;;14.86;70.06
141;BME280;65;48.778;9.160;2024-02-14T13:29:35;98972.06;;;14.78;73.45
141;BME280;65;48.778;9.160;2024-02-14T13:32:21;98971.25;;;15.16;70.59
141;BME280;65;48.778;9.160;2024-02-14T13:35:07;98962.84;;;15.09;70.74
141;BME280;65;48.778;9.160;2024-02-14T13:37:54;98970.38;;;15.03;70.25
141;BME280;65;48.778;9.160;2024-02-14T13:40:40;98962.19;;;15.06;71.07
141;BME280;65;48.778;9.160;2024-02-14T13:43:26;98958.44;;;14.96;70.38
141;BME280;65;48.778;9.160;2024-02-14T13:46:11;98953.53;;;15.02;71.72
141;BME280;65;48.778;9.160;2024-02-14T13:48:58;98971.25;;;15.16;71.66
141;BME280;65;48.778;9.160;2024-02-14T13:51:43;98973.16;;;15.14;71.32
141;BME280;65;48.778;9.160;2024-02-14T13:54:29;98963.91;;;15.07;71.28
141;BME280;65;48.778;9.160;2024-02-14T13:57:15;98974.31;;;14.97;74.11
141;BME280;65;48.778;9.160;2024-02-14T14:00:01;98978.56;;;15.00;72.36
141;BME280;65;48.778;9.160;2024-02-14T14:02:46;98972.06;;;14.78;74.08
141;BME280;65;48.778;9.160;2024-02-14T14:05:32;98971.94;;;14.80;73.27
141;BME280;65;48.778;9.160;2024-02-14T14:08:18;98976.84;;;14.86;74.67
141;BME280;65;48.778;9.160;2024-02-14T14:11:04;98971.38;;;14.62;75.18
141;BME280;65;48.778;9.160;2024-02-14T14:13:50;98968.50;;;14.52;78.21
141;BME280;65;48.778;9.160;2024-02-14T14:16:36;98978.38;;;14.50;77.35
141;BME280;65;48.778;9.160;2024-02-14T14:19:22;98979.06;;;14.67;76.28
141;BME280;65;48.778;9.160;2024-02-14T14:22:07;98979.59;;;14.72;77.56
141;BME280;65;48.778;9.160;2024-02-14T14:24:54;98974.06;;;14.62;76.08
141;BME280;65;48.778;9.160;2024-02-14T14:27:40;98977.66;;;14.61;77.96
141;BME280;65;48.778;9.160;2024-02-14T14:30:26;98984.34;;;14.54;77.51
141;BME280;65;48.778;9.160;2024-02-14T14:33:12;98986.41;;;14.63;76.99
141;BME280;65;48.778;9.160;2024-02-14T14:35:58;98974.25;;;14.59;76.87
141;BME280;65;48.778;9.160;2024-02-14T14:38:43;98972.75;;;14.41;78.52
141;BME280;65;48.778;9.160;2024-02-14T14:41:29;98979.03;;;14.40;77.91
141;BME280;65;48.778;9.160;2024-02-14T14:44:16;98976.47;;;14.38;77.75
141;BME280;65;48.778;9.160;2024-02-14T14:47:02;98976.22;;;14.29;78.40
141;BME280;65;48.778;9.160;2024-02-14T14:49:48;98977.88;;;14.17;80.37
141;BME280;65;48.778;9.160;2024-02-14T14:52:34;98977.13;;;14.15;80.00
141;BME280;65;48.778;9.160;2024-02-14T14:55:20;98977.78;;;14.18;79.52
141;BME280;65;48.778;9.160;2024-02-14T14:58:12;98967.16;;;14.18;80.23
141;BME280;65;48.778;9.160;2024-02-14T15:00:59;98975.13;;;14.18;80.21
141;BME280;65;48.778;9.160;2024-02-14T15:03:45;98974.47;;;14.15;80.11
141;BME280;65;48.778;9.160;2024-02-14T15:06:30;98971.94;;;14.13;81.08
141;BME280;65;48.778;9.160;2024-02-14T15:09:16;98967.00;;;14.07;79.83
141;BME280;65;48.778;9.160;2024-02-14T15:12:02;98964.84;;;14.00;81.79
141;BME280;65;48.778;9.160;2024-02-14T15:14:48;98960.38;;;14.00;81.78
141;BME280;65;48.778;9.160;2024-02-14T15:17:34;98961.03;;;14.04;81.64
141;BME280;65;48.778;9.160;2024-02-14T15:20:20;98957.31;;;14.06;81.29
141;BME280;65;48.778;9.160;2024-02-14T15:23:07;98963.09;;;14.13;81.46
141;BME280;65;48.778;9.160;2024-02-14T15:25:53;98968.06;;;14.32;79.99
141;BME280;65;48.778;9.160;2024-02-14T15:28:47;98965.19;;;14.35;79.69
141;BME280;65;48.778;9.160;2024-02-14T15:31:41;98954.16;;;14.41;78.24
141;BME280;65;48.778;9.160;2024-02-14T15:34:45;98945.06;;;14.31;82.16
141;BME280;65;48.778;9.160;2024-02-14T15:37:31;98950.63;;;14.40;78.69
141;BME280;65;48.778;9.160;2024-02-14T15:40:16;98959.94;;;14.20;80.12
141;BME280;65;48.778;9.160;2024-02-14T15:43:02;98963.94;;;14.13;80.58
141;BME280;65;48.778;9.160;2024-02-14T15:45:49;98973.63;;;14.14;82.13
141;BME280;65;48.778;9.160;2024-02-14T15:48:35;98974.44;;;14.02;81.54